Pineville, MO

12:05 PM CST on January 29, 2015 (GMT -0600)
NW Arkansas Airport | Change Station
CLOSE
Current Station
Airport
Location: NW Arkansas Airport,
Elevation: 1286 ft
Nearby Weather Stations

Elev 1286 ft 36.28 °N, 94.31 °W | Updated 12 minutes ago

Overcast
Overcast
42 °F
Feels Like 33 °F
N
20
Wind Variable Wind from NNW
Gusts 29 mph

Today
High -- | Low -- °F
--% Chance of Precip.
Yesterday
High -- | Low -- °F
Precip. -- in
7:21 AM 5:39 PM
Waxing Gibbous, 76% visible
Pressure 30.32 in
Visibility 10.0 miles
Clouds Overcast 2000 ft
Windchill 33 °F
Dew Point 33 °F
Humidity 70%
Rainfall 0.00 in
Snow Depth Not available.
UV 1 out of 12
Pollen 2.90 out of 12
Air Quality Not available.
Flu Activity Not available.
METAR KXNA 291753Z COR 33017G25KT 10SM -RA OVC020 06/01 A3032 RMK AO2 RAB30 SLP266 P0000 60000 T00560006 10100 20056 51035

More Conditions Fewer Conditions

Pressure 30.32 in
Visibility 10.0 miles
Clouds Overcast 2000 ft
Windchill 33 °F
Dew Point 33 °F
Humidity 70%
Rainfall 0.00 in
Snow Depth Not available.
UV 1 out of 12
Pollen 2.90 out of 12
Air Quality Not available.
Flu Activity Not available.
METAR KXNA 291753Z COR 33017G25KT 10SM -RA OVC020 06/01 A3032 RMK AO2 RAB30 SLP266 P0000 60000 T00560006 10100 20056 51035

More Conditions Fewer Conditions

10-Day Weather Forecast

Almanac

Astronomy

Jan. 29, 2015 Rise Set
Actual Time
Civil Twilight
Nautical Twilight
Astronomical Twilight
Moon
Length of Visible Light
Length of Day
Tomorrow will be .
, % of the Moon is Illuminated

Today's Extremes

State Highs State Lows

Community

WunderPhotos

Upload Photos

1,791,505 photos uploaded!

WunderBlogs® & News

Nearby

Air Quality

  Air Quality AQ Index Pollutant
Not available.

Snow Depth

Station Depth Elevation

Earthquake Activity

City Distance Mag. Time & Date
Minimum magnitude displayed is 2.5.

Coastal Water Temperatures

Place Temperature

Nearby Weather Stations